• Join FlightAware (Why Join?)
  • Login
  • US Flag 
12:28PM EDT


 

Airport Tracker/Info


-or-


 

Live Flight TrackerFlight Track Log ✈ AAL2007 ✈ 28-Apr-2013 ✈ KORD - KAUS

Flight Track Log - Related Links

Times and Time Zones

All times are in EDT time to prevent confusion due to time zone crossing. See the AAL2007 flight status page for this flight to view local times or setup timezone preferences in your user account.

Time Position Orientation Groundspeed Altitude Reporting Facility
EDT Latitude Longitude Course Direction KTS MPH feet Rate Location/Type
06:10PM 41.9500 -87.9000 207° Southwest 178 205 1,400  Level Chicago TRACON
06:11PM 41.9000 -87.9000 180° South 203 234 3,400 1,680 Climbing Chicago TRACON
06:12PM 41.6963 -88.1923 201° Southwest  Level Estimated
06:12PM 41.8333 -87.9000 180° South 269 310 4,800  Level Chicago TRACON
06:12PM 41.8100 -87.9000 180° South 236 272 5,000 1,200 Climbing Chicago Center
06:13PM 41.6010 -88.2869 197° South  Level Estimated
06:13PM 41.7364 -87.9256 195° South 272 313 6,400  Level Chicago Center
06:14PM 41.5057 -88.3812 194° South  Level Estimated
06:14PM 41.6697 -87.9800 211° Southwest 280 322 9,000  Level Chicago Center
06:15PM 41.4102 -88.4753 207° Southwest  Level Estimated
06:15PM 41.5781 -88.0478 209° Southwest 314 361 11,400  Level Chicago Center
06:16PM 41.4944 -88.1119 210° Southwest 348 400 13,600 2,160 Climbing Chicago Center
06:17PM 41.4081 -88.1753 209° Southwest 371 427 15,900 2,340 Climbing Chicago Center
06:18PM 41.2892 -88.2322 200° South 386 444 18,500 2,160 Climbing Chicago Center
06:19PM 41.1861 -88.2794 199° South 394 453 20,400 1,500 Climbing Chicago Center
06:20PM 41.0767 -88.3292 199° South 410 472 21,700 1,320 Climbing Chicago Center
06:21PM 40.9639 -88.3789 198° South 424 488 23,200 1,440 Climbing Chicago Center
06:22PM 40.8478 -88.4308 199° South 439 505 24,700 1,500 Climbing Chicago Center
06:23PM 40.7125 -88.5122 205° Southwest 449 517 26,300 1,320 Climbing Chicago Center
06:24PM 40.6228 -88.6292 225° Southwest 453 521 27,500 1,200 Climbing Chicago Center
06:25PM 40.5231 -88.7331 218° Southwest 457 526 28,900 1,200 Climbing Chicago Center
06:26PM 40.4161 -88.8472 219° Southwest 467 537 30,100 1,200 Climbing Chicago Center
06:27PM 40.3164 -88.9564 220° Southwest 466 536 31,400 840 Climbing Chicago Center
06:28PM 40.2164 -89.0631 219° Southwest 461 531 31,900 240 Climbing Chicago Center
06:29PM 40.1158 -89.1700 219° Southwest 462 532 32,000  Climbing Chicago Center
06:30PM 40.0153 -89.2767 219° Southwest 465 535 32,000  Level Chicago Center
06:31PM 39.8950 -89.4047 219° Southwest 463 533 32,000  Level Chicago Center
06:33PM 39.7939 -89.5114 219° Southwest 466 536 32,000  Level Chicago Center
06:34PM 39.6933 -89.6133 218° Southwest 460 529 32,000  Level Chicago Center
06:34PM 39.6075 -89.7089 221° Southwest 463 533 32,000  Level Kansas City Center
06:36PM 39.5067 -89.8136 219° Southwest 465 535 32,000  Level Kansas City Center
06:37PM 39.3864 -89.9386 219° Southwest 464 534 32,000  Level Kansas City Center
06:38PM 39.2867 -90.0447 219° Southwest 466 536 32,000  Level Kansas City Center
06:39PM 39.1856 -90.1486 219° Southwest 466 536 32,100  Climbing Kansas City Center
06:40PM 39.0858 -90.2528 219° Southwest 464 534 32,100 -60 Level Kansas City Center
06:41PM 38.9856 -90.3558 219° Southwest 465 535 32,000 -120 Descending Kansas City Center
06:42PM 38.8828 -90.4625 219° Southwest 457 526 31,900 -60 Descending Kansas City Center
06:43PM 38.7842 -90.5717 221° Southwest 463 533 31,900  Level Kansas City Center
06:44PM 38.6808 -90.6906 222° Southwest 459 528 32,000  Climbing Kansas City Center
06:45PM 38.5864 -90.7997 222° Southwest 456 525 32,000  Level Kansas City Center
06:46PM 38.4922 -90.9078 222° Southwest 459 528 32,000  Level Kansas City Center
06:47PM 38.3772 -91.0372 221° Southwest 463 533 32,100  Climbing Kansas City Center
06:48PM 38.2833 -91.1442 222° Southwest 455 524 32,000 -120 Descending Kansas City Center
06:49PM 38.1883 -91.2506 221° Southwest 455 524 31,900 -60 Descending Kansas City Center
06:50PM 38.0983 -91.3517 221° Southwest 447 514 31,900  Level Kansas City Center
06:51PM 37.9850 -91.4808 222° Southwest 452 520 32,000  Climbing Kansas City Center
06:52PM 37.8894 -91.5883 222° Southwest 454 522 32,000  Level Kansas City Center
06:53PM 37.7950 -91.6956 222° Southwest 452 520 32,000  Level Kansas City Center
06:54PM 37.6992 -91.8025 221° Southwest 453 521 32,000  Level Kansas City Center
06:55PM 37.6028 -91.9100 221° Southwest 455 524 32,000  Level Kansas City Center
06:56PM 37.5053 -92.0194 222° Southwest 461 531 32,100  Climbing Kansas City Center
06:57PM 37.4092 -92.1272 222° Southwest 460 529 32,000 -120 Descending Kansas City Center
06:58PM 37.3139 -92.2319 221° Southwest 455 524 31,900 -60 Descending Kansas City Center
06:59PM 37.1994 -92.3567 221° Southwest 452 520 31,900  Level Kansas City Center
07:00PM 37.1031 -92.4619 221° Southwest 454 522 32,000  Climbing Kansas City Center
07:01PM 37.0078 -92.5669 221° Southwest 454 522 32,000  Level Kansas City Center
07:02PM 36.9114 -92.6708 221° Southwest 454 522 32,100  Climbing Kansas City Center
07:03PM 36.8297 -92.7597 221° Southwest 461 531 32,100  Level Memphis Center
07:04PM 36.7358 -92.8631 221° Southwest 461 531 32,100 -60 Level Memphis Center
07:05PM 36.6381 -92.9661 220° Southwest 461 531 32,000 -120 Descending Memphis Center
07:06PM 36.5419 -93.0689 221° Southwest 461 531 31,900 -60 Descending Memphis Center
07:07PM 36.4461 -93.1664 219° Southwest 461 531 31,900  Level Memphis Center
07:08PM 36.3458 -93.2633 218° Southwest 461 531 31,900  Level Memphis Center
07:09PM 36.2394 -93.3497 213° Southwest 461 531 32,000 60 Climbing Memphis Center
07:10PM 36.1353 -93.4383 214° Southwest 461 531 32,100  Climbing Memphis Center
07:11PM 36.0267 -93.5292 214° Southwest 461 531 32,100 -60 Level Memphis Center
07:12PM 35.9222 -93.6175 214° Southwest 461 531 32,000 -120 Descending Memphis Center
07:13PM 35.8178 -93.7056 214° Southwest 461 531 31,900  Descending Memphis Center
07:14PM 35.7111 -93.7933 214° Southwest 461 531 32,000  Climbing Memphis Center
07:15PM 35.6064 -93.8808 214° Southwest 461 531 31,900 -60 Descending Memphis Center
07:16PM 35.5017 -93.9683 214° Southwest 461 531 31,900 60 Level Memphis Center
07:17PM 35.3800 -94.0672 214° Southwest 468 539 32,100 60 Climbing Memphis Center
07:18PM 35.2750 -94.1567 215° Southwest 468 539 32,100  Level Memphis Center
07:19PM 35.1700 -94.2436 214° Southwest 468 539 32,100 -60 Level Memphis Center
07:20PM 35.0611 -94.3297 213° Southwest 468 539 32,000 -60 Descending Memphis Center
07:21PM 34.9558 -94.4186 215° Southwest 468 539 32,000  Level Memphis Center
07:22PM 34.9311 -94.4428 219° Southwest 455 524 32,000 60 Level Fort Worth Center
07:23PM 34.8267 -94.5300 214° Southwest 450 518 32,100  Climbing Fort Worth Center
07:24PM 34.7200 -94.6119 212° Southwest 450 518 32,000  Descending Fort Worth Center
07:25PM 34.6156 -94.7011 215° Southwest 457 526 32,100  Climbing Fort Worth Center
07:26PM 34.5069 -94.7853 213° Southwest 457 526 32,000 -120 Descending Fort Worth Center
07:27PM 34.4042 -94.8689 214° Southwest 457 526 31,900  Descending Fort Worth Center
07:28PM 34.3017 -94.9522 214° Southwest 457 526 32,000  Climbing Fort Worth Center
07:29PM 34.1989 -95.0331 213° Southwest 457 526 31,900  Descending Fort Worth Center
07:30PM 34.0836 -95.1239 213° Southwest 457 526 32,000  Climbing Fort Worth Center
07:31PM 33.9808 -95.2044 213° Southwest 457 526 32,000  Level Fort Worth Center
07:32PM 33.8778 -95.2869 214° Southwest 457 526 32,000 -60 Level Fort Worth Center
07:33PM 33.7728 -95.3694 213° Southwest 451 519 31,900 -60 Descending Fort Worth Center
07:34PM 33.6697 -95.4517 214° Southwest 451 519 31,900 60 Level Fort Worth Center
07:35PM 33.5644 -95.5314 212° Southwest 451 519 32,100 60 Climbing Fort Worth Center
07:36PM 33.4656 -95.6131 215° Southwest 451 519 32,100 -60 Level Fort Worth Center
07:37PM 33.3603 -95.6925 212° Southwest 442 509 32,000 -60 Descending Fort Worth Center
07:38PM 33.2672 -95.7636 213° Southwest 442 509 32,000 -60 Level Fort Worth Center
07:39PM 33.1681 -95.8450 214° Southwest 442 509 31,900  Descending Fort Worth Center
07:40PM 33.0647 -95.9236 213° Southwest 442 509 32,000  Climbing Fort Worth Center
07:41PM 32.9592 -96.0022 212° Southwest 442 509 32,000  Level Fort Worth Center
07:42PM 32.8578 -96.0828 214° Southwest 442 509 32,000  Level Fort Worth Center
07:43PM 32.7458 -96.1686 213° Southwest 442 509 32,100  Climbing Fort Worth Center
07:44PM 32.6400 -96.2464 212° Southwest 442 509 32,000 -60 Descending Fort Worth Center
07:45PM 32.5364 -96.3267 213° Southwest 442 509 32,000  Level Fort Worth Center
07:46PM 32.4347 -96.4042 213° Southwest 449 517 32,100 -180 Climbing Fort Worth Center
07:47PM 32.3308 -96.4767 211° Southwest 444 511 31,700 -1,020 Descending Fort Worth Center
07:48PM 32.2228 -96.5467 209° Southwest 444 511 30,100 -1,560 Descending Fort Worth Center
07:49PM 32.1106 -96.6236 210° Southwest 453 521 28,600 -1,440 Descending Fort Worth Center
07:50PM 32.0089 -96.6881 208° Southwest 463 533 27,300 -1,500 Descending Fort Worth Center
07:51PM 31.8861 -96.7722 210° Southwest 463 533 25,600 -1,320 Descending Fort Worth Center
07:53PM 31.6225 -96.9425 209° Southwest 459 528 22,900 -1,020 Descending Houston Center
07:54PM 31.5117 -97.0144 209° Southwest 453 521 22,100 -780 Descending Houston Center
07:55PM 31.4014 -97.0858 209° Southwest 450 518 21,300 -1,440 Descending Houston Center
07:56PM 31.2744 -97.1669 209° Southwest 443 510 19,200 -1,920 Descending Houston Center
07:57PM 31.1678 -97.2256 205° Southwest 425 489 17,400 -1,800 Descending Houston Center
07:58PM 31.0581 -97.2681 198° South 413 475 15,600 -1,680 Descending Houston Center
07:59PM 30.9644 -97.3047 199° South 399 459 14,000 -1,440 Descending Houston Center
08:00PM 30.8506 -97.3492 199° South 362 417 12,700 -1,140 Descending Houston Center
08:01PM 30.7686 -97.3908 204° Southwest 325 374 11,700 -1,320 Descending Houston Center
08:02PM 30.6967 -97.4458 213° Southwest 307 353 10,000 -1,740 Descending Houston Center
08:03PM 30.6261 -97.5003 214° Southwest 304 350 8,200 -1,560 Descending Houston Center
08:04PM 30.5583 -97.5544 215° Southwest 296 341 6,800 -1,260 Descending Houston Center
08:05PM 30.4894 -97.5950 207° Southwest 281 323 5,600 -1,260 Descending Houston Center
08:07PM 30.4228 -97.6253 201° Southwest 261 300 4,200 -1,380 Descending Houston Center